METAR Data
IDs: Format: Raw Decoded Include TAF

Data at: 1223 UTC 26 Feb 2021

LSZR 261220Z 28004KT CAVOK 12/04 Q1029 NOSIG RMK I